sensor_id;sensor_type;location;lat;lon;timestamp;P1;durP1;ratioP1;P2;durP2;ratioP2
68315;SDS011;55508;54.368;18.406;2023-04-12T00:01:41;6.57;;;6.07;;
68315;SDS011;55508;54.368;18.406;2023-04-12T00:04:08;6.15;;;5.65;;
68315;SDS011;55508;54.368;18.406;2023-04-12T00:06:36;6.40;;;5.80;;
68315;SDS011;55508;54.368;18.406;2023-04-12T00:09:03;6.72;;;6.13;;
68315;SDS011;55508;54.368;18.406;2023-04-12T00:11:30;7.35;;;6.65;;
68315;SDS011;55508;54.368;18.406;2023-04-12T00:13:57;8.00;;;7.40;;
68315;SDS011;55508;54.368;18.406;2023-04-12T00:16:24;8.00;;;7.20;;
68315;SDS011;55508;54.368;18.406;2023-04-12T00:18:51;9.02;;;8.10;;
68315;SDS011;55508;54.368;18.406;2023-04-12T00:21:18;9.43;;;8.52;;
68315;SDS011;55508;54.368;18.406;2023-04-12T00:23:45;11.32;;;9.93;;
68315;SDS011;55508;54.368;18.406;2023-04-12T00:26:12;11.07;;;9.88;;
68315;SDS011;55508;54.368;18.406;2023-04-12T00:28:41;10.75;;;9.75;;
68315;SDS011;55508;54.368;18.406;2023-04-12T00:31:08;9.82;;;8.82;;
68315;SDS011;55508;54.368;18.406;2023-04-12T00:33:35;10.27;;;9.27;;
68315;SDS011;55508;54.368;18.406;2023-04-12T00:36:03;9.30;;;8.48;;
68315;SDS011;55508;54.368;18.406;2023-04-12T00:38:30;10.05;;;9.25;;
68315;SDS011;55508;54.368;18.406;2023-04-12T00:40:57;9.68;;;8.88;;
68315;SDS011;55508;54.368;18.406;2023-04-12T00:43:23;9.30;;;8.50;;
68315;SDS011;55508;54.368;18.406;2023-04-12T00:45:53;10.35;;;9.23;;
68315;SDS011;55508;54.368;18.406;2023-04-12T00:48:25;8.77;;;8.07;;
68315;SDS011;55508;54.368;18.406;2023-04-12T00:50:53;9.15;;;8.38;;
68315;SDS011;55508;54.368;18.406;2023-04-12T00:53:23;9.38;;;8.40;;
68315;SDS011;55508;54.368;18.406;2023-04-12T00:55:50;8.95;;;8.25;;
68315;SDS011;55508;54.368;18.406;2023-04-12T00:58:21;9.38;;;8.68;;
68315;SDS011;55508;54.368;18.406;2023-04-12T01:00:49;10.02;;;9.13;;
68315;SDS011;55508;54.368;18.406;2023-04-12T01:03:18;10.23;;;9.18;;
68315;SDS011;55508;54.368;18.406;2023-04-12T01:05:51;10.18;;;9.20;;
68315;SDS011;55508;54.368;18.406;2023-04-12T01:11:43;11.20;;;10.10;;
68315;SDS011;55508;54.368;18.406;2023-04-12T01:17:05;11.35;;;10.15;;
68315;SDS011;55508;54.368;18.406;2023-04-12T01:22:52;10.23;;;9.35;;
68315;SDS011;55508;54.368;18.406;2023-04-12T01:28:49;10.57;;;9.50;;
68315;SDS011;55508;54.368;18.406;2023-04-12T01:31:18;9.57;;;8.75;;
68315;SDS011;55508;54.368;18.406;2023-04-12T01:33:49;10.20;;;9.18;;
68315;SDS011;55508;54.368;18.406;2023-04-12T01:36:19;9.20;;;8.40;;
68315;SDS011;55508;54.368;18.406;2023-04-12T01:38:47;9.60;;;8.80;;
68315;SDS011;55508;54.368;18.406;2023-04-12T01:41:15;9.05;;;8.25;;
68315;SDS011;55508;54.368;18.406;2023-04-12T01:43:43;9.48;;;8.68;;
68315;SDS011;55508;54.368;18.406;2023-04-12T01:46:11;10.55;;;9.45;;
68315;SDS011;55508;54.368;18.406;2023-04-12T01:48:40;9.50;;;8.55;;
68315;SDS011;55508;54.368;18.406;2023-04-12T01:51:26;8.23;;;7.43;;
68315;SDS011;55508;54.368;18.406;2023-04-12T01:57:03;8.38;;;7.68;;
68315;SDS011;55508;54.368;18.406;2023-04-12T01:59:31;7.28;;;6.78;;
68315;SDS011;55508;54.368;18.406;2023-04-12T02:02:02;8.82;;;8.02;;
68315;SDS011;55508;54.368;18.406;2023-04-12T02:04:31;8.05;;;7.45;;
68315;SDS011;55508;54.368;18.406;2023-04-12T02:07:02;7.93;;;7.23;;
68315;SDS011;55508;54.368;18.406;2023-04-12T02:09:29;8.43;;;7.72;;
68315;SDS011;55508;54.368;18.406;2023-04-12T02:11:56;8.60;;;7.90;;
68315;SDS011;55508;54.368;18.406;2023-04-12T02:14:23;8.63;;;7.90;;
68315;SDS011;55508;54.368;18.406;2023-04-12T02:16:50;8.20;;;7.38;;
68315;SDS011;55508;54.368;18.406;2023-04-12T02:19:20;9.32;;;8.43;;
68315;SDS011;55508;54.368;18.406;2023-04-12T02:21:47;8.27;;;7.68;;
68315;SDS011;55508;54.368;18.406;2023-04-12T02:24:15;8.27;;;7.57;;
68315;SDS011;55508;54.368;18.406;2023-04-12T02:26:43;8.00;;;7.40;;
68315;SDS011;55508;54.368;18.406;2023-04-12T02:29:10;8.38;;;7.78;;
68315;SDS011;55508;54.368;18.406;2023-04-12T02:31:38;8.00;;;7.40;;
68315;SDS011;55508;54.368;18.406;2023-04-12T02:34:09;8.73;;;7.93;;
68315;SDS011;55508;54.368;18.406;2023-04-12T02:36:39;8.40;;;7.60;;
68315;SDS011;55508;54.368;18.406;2023-04-12T02:39:06;8.65;;;7.85;;
68315;SDS011;55508;54.368;18.406;2023-04-12T02:41:35;8.27;;;7.68;;
68315;SDS011;55508;54.368;18.406;2023-04-12T02:44:06;7.88;;;7.22;;
68315;SDS011;55508;54.368;18.406;2023-04-12T02:46:33;7.45;;;6.95;;
68315;SDS011;55508;54.368;18.406;2023-04-12T02:49:01;9.10;;;8.32;;
68315;SDS011;55508;54.368;18.406;2023-04-12T02:51:35;8.43;;;7.78;;
68315;SDS011;55508;54.368;18.406;2023-04-12T02:54:04;7.65;;;7.05;;
68315;SDS011;55508;54.368;18.406;2023-04-12T02:56:46;8.40;;;7.70;;
68315;SDS011;55508;54.368;18.406;2023-04-12T02:59:32;7.93;;;7.32;;
68315;SDS011;55508;54.368;18.406;2023-04-12T03:02:19;8.20;;;7.60;;
68315;SDS011;55508;54.368;18.406;2023-04-12T03:04:48;8.80;;;7.90;;
68315;SDS011;55508;54.368;18.406;2023-04-12T03:07:27;8.63;;;7.82;;
68315;SDS011;55508;54.368;18.406;2023-04-12T03:09:57;8.50;;;7.80;;
68315;SDS011;55508;54.368;18.406;2023-04-12T03:12:24;8.48;;;7.88;;
68315;SDS011;55508;54.368;18.406;2023-04-12T03:15:06;9.15;;;8.45;;
68315;SDS011;55508;54.368;18.406;2023-04-12T03:17:44;8.82;;;8.02;;
68315;SDS011;55508;54.368;18.406;2023-04-12T03:20:16;8.45;;;7.78;;
68315;SDS011;55508;54.368;18.406;2023-04-12T03:23:28;9.38;;;8.48;;
68315;SDS011;55508;54.368;18.406;2023-04-12T03:26:05;9.20;;;8.45;;
68315;SDS011;55508;54.368;18.406;2023-04-12T03:28:33;8.55;;;7.85;;
68315;SDS011;55508;54.368;18.406;2023-04-12T03:31:03;8.85;;;8.02;;
68315;SDS011;55508;54.368;18.406;2023-04-12T03:33:37;9.32;;;8.00;;
68315;SDS011;55508;54.368;18.406;2023-04-12T03:36:09;8.18;;;7.47;;
68315;SDS011;55508;54.368;18.406;2023-04-12T03:38:37;8.95;;;8.15;;
68315;SDS011;55508;54.368;18.406;2023-04-12T03:41:07;8.82;;;8.05;;
68315;SDS011;55508;54.368;18.406;2023-04-12T03:43:36;9.15;;;8.25;;
68315;SDS011;55508;54.368;18.406;2023-04-12T03:46:14;9.02;;;8.25;;
68315;SDS011;55508;54.368;18.406;2023-04-12T03:48:43;9.57;;;8.77;;
68315;SDS011;55508;54.368;18.406;2023-04-12T03:51:10;9.38;;;8.57;;
68315;SDS011;55508;54.368;18.406;2023-04-12T03:53:42;10.15;;;9.23;;
68315;SDS011;55508;54.368;18.406;2023-04-12T03:56:13;9.15;;;8.35;;
68315;SDS011;55508;54.368;18.406;2023-04-12T03:58:43;9.30;;;8.48;;
68315;SDS011;55508;54.368;18.406;2023-04-12T04:01:11;9.82;;;8.82;;
68315;SDS011;55508;54.368;18.406;2023-04-12T04:03:42;10.63;;;8.48;;
68315;SDS011;55508;54.368;18.406;2023-04-12T04:06:29;9.73;;;8.75;;
68315;SDS011;55508;54.368;18.406;2023-04-12T04:08:56;9.95;;;8.85;;
68315;SDS011;55508;54.368;18.406;2023-04-12T04:11:25;10.18;;;9.18;;
68315;SDS011;55508;54.368;18.406;2023-04-12T04:14:01;9.45;;;8.70;;
68315;SDS011;55508;54.368;18.406;2023-04-12T04:16:28;10.07;;;9.13;;
68315;SDS011;55508;54.368;18.406;2023-04-12T04:19:01;11.68;;;9.68;;
68315;SDS011;55508;54.368;18.406;2023-04-12T04:21:28;9.20;;;8.40;;
68315;SDS011;55508;54.368;18.406;2023-04-12T04:23:58;10.90;;;9.80;;
68315;SDS011;55508;54.368;18.406;2023-04-12T04:26:31;10.50;;;9.55;;
68315;SDS011;55508;54.368;18.406;2023-04-12T04:29:11;13.25;;;10.40;;
68315;SDS011;55508;54.368;18.406;2023-04-12T04:31:38;11.20;;;9.95;;
68315;SDS011;55508;54.368;18.406;2023-04-12T04:34:06;10.80;;;9.63;;
68315;SDS011;55508;54.368;18.406;2023-04-12T04:36:40;11.23;;;9.82;;
68315;SDS011;55508;54.368;18.406;2023-04-12T04:39:08;10.95;;;9.85;;
68315;SDS011;55508;54.368;18.406;2023-04-12T04:41:39;14.68;;;10.15;;
68315;SDS011;55508;54.368;18.406;2023-04-12T04:44:12;11.20;;;10.20;;
68315;SDS011;55508;54.368;18.406;2023-04-12T04:46:48;13.70;;;11.13;;
68315;SDS011;55508;54.368;18.406;2023-04-12T04:49:15;11.82;;;10.63;;
68315;SDS011;55508;54.368;18.406;2023-04-12T04:51:42;11.88;;;10.48;;
68315;SDS011;55508;54.368;18.406;2023-04-12T04:54:10;15.80;;;11.27;;
68315;SDS011;55508;54.368;18.406;2023-04-12T04:56:40;12.23;;;11.02;;
68315;SDS011;55508;54.368;18.406;2023-04-12T04:59:09;14.05;;;11.98;;
68315;SDS011;55508;54.368;18.406;2023-04-12T05:01:36;12.27;;;10.40;;
68315;SDS011;55508;54.368;18.406;2023-04-12T05:04:04;12.85;;;10.93;;
68315;SDS011;55508;54.368;18.406;2023-04-12T05:06:31;12.15;;;10.93;;
68315;SDS011;55508;54.368;18.406;2023-04-12T05:08:59;12.52;;;10.90;;
68315;SDS011;55508;54.368;18.406;2023-04-12T05:11:30;11.20;;;10.02;;
68315;SDS011;55508;54.368;18.406;2023-04-12T05:13:57;14.18;;;10.48;;
68315;SDS011;55508;54.368;18.406;2023-04-12T05:16:24;11.52;;;10.35;;
68315;SDS011;55508;54.368;18.406;2023-04-12T05:18:51;14.15;;;11.70;;
68315;SDS011;55508;54.368;18.406;2023-04-12T05:21:18;13.63;;;11.23;;
68315;SDS011;55508;54.368;18.406;2023-04-12T05:23:46;13.02;;;11.73;;
68315;SDS011;55508;54.368;18.406;2023-04-12T05:26:13;13.55;;;12.05;;
68315;SDS011;55508;54.368;18.406;2023-04-12T05:28:44;11.88;;;10.70;;
68315;SDS011;55508;54.368;18.406;2023-04-12T05:31:12;11.82;;;10.73;;
68315;SDS011;55508;54.368;18.406;2023-04-12T05:33:39;12.65;;;11.02;;
68315;SDS011;55508;54.368;18.406;2023-04-12T05:36:07;13.05;;;11.60;;
68315;SDS011;55508;54.368;18.406;2023-04-12T05:38:34;13.05;;;11.82;;
68315;SDS011;55508;54.368;18.406;2023-04-12T05:41:07;13.02;;;11.73;;
68315;SDS011;55508;54.368;18.406;2023-04-12T05:43:34;13.90;;;12.43;;
68315;SDS011;55508;54.368;18.406;2023-04-12T05:46:05;13.63;;;12.32;;
68315;SDS011;55508;54.368;18.406;2023-04-12T05:48:34;14.23;;;12.40;;
68315;SDS011;55508;54.368;18.406;2023-04-12T05:51:01;15.27;;;12.90;;
68315;SDS011;55508;54.368;18.406;2023-04-12T05:53:30;14.38;;;12.95;;
68315;SDS011;55508;54.368;18.406;2023-04-12T05:56:01;14.32;;;13.00;;
68315;SDS011;55508;54.368;18.406;2023-04-12T05:58:28;15.10;;;12.05;;
68315;SDS011;55508;54.368;18.406;2023-04-12T06:00:55;12.80;;;11.57;;
68315;SDS011;55508;54.368;18.406;2023-04-12T06:03:22;13.38;;;11.98;;
68315;SDS011;55508;54.368;18.406;2023-04-12T06:05:51;12.77;;;11.45;;
68315;SDS011;55508;54.368;18.406;2023-04-12T06:08:18;13.88;;;12.40;;
68315;SDS011;55508;54.368;18.406;2023-04-12T06:10:45;13.70;;;12.32;;
68315;SDS011;55508;54.368;18.406;2023-04-12T06:13:13;12.90;;;11.70;;
68315;SDS011;55508;54.368;18.406;2023-04-12T06:15:41;12.20;;;10.93;;
68315;SDS011;55508;54.368;18.406;2023-04-12T06:18:09;12.55;;;11.25;;
68315;SDS011;55508;54.368;18.406;2023-04-12T06:20:39;11.80;;;10.68;;
68315;SDS011;55508;54.368;18.406;2023-04-12T06:23:06;13.60;;;10.93;;
68315;SDS011;55508;54.368;18.406;2023-04-12T06:25:33;11.82;;;10.82;;
68315;SDS011;55508;54.368;18.406;2023-04-12T06:28:02;14.63;;;11.70;;
68315;SDS011;55508;54.368;18.406;2023-04-12T06:30:31;14.23;;;10.77;;
68315;SDS011;55508;54.368;18.406;2023-04-12T06:32:58;12.43;;;9.90;;
68315;SDS011;55508;54.368;18.406;2023-04-12T06:35:25;12.65;;;10.25;;
68315;SDS011;55508;54.368;18.406;2023-04-12T06:37:52;10.77;;;9.13;;
68315;SDS011;55508;54.368;18.406;2023-04-12T06:40:19;8.73;;;8.02;;
68315;SDS011;55508;54.368;18.406;2023-04-12T06:42:46;9.88;;;9.05;;
68315;SDS011;55508;54.368;18.406;2023-04-12T06:45:20;9.13;;;8.38;;
68315;SDS011;55508;54.368;18.406;2023-04-12T06:47:47;9.82;;;8.77;;
68315;SDS011;55508;54.368;18.406;2023-04-12T06:50:14;13.18;;;10.05;;
68315;SDS011;55508;54.368;18.406;2023-04-12T06:52:41;11.10;;;9.77;;
68315;SDS011;55508;54.368;18.406;2023-04-12T06:55:08;12.50;;;10.60;;
68315;SDS011;55508;54.368;18.406;2023-04-12T06:57:35;13.35;;;10.75;;
68315;SDS011;55508;54.368;18.406;2023-04-12T07:00:02;10.05;;;9.05;;
68315;SDS011;55508;54.368;18.406;2023-04-12T07:02:29;11.10;;;8.88;;
68315;SDS011;55508;54.368;18.406;2023-04-12T07:04:57;9.70;;;8.82;;
68315;SDS011;55508;54.368;18.406;2023-04-12T07:07:24;9.38;;;8.57;;
68315;SDS011;55508;54.368;18.406;2023-04-12T07:09:51;10.90;;;8.13;;
68315;SDS011;55508;54.368;18.406;2023-04-12T07:12:18;8.23;;;7.43;;
68315;SDS011;55508;54.368;18.406;2023-04-12T07:14:45;8.98;;;8.07;;
68315;SDS011;55508;54.368;18.406;2023-04-12T07:17:12;9.13;;;8.23;;
68315;SDS011;55508;54.368;18.406;2023-04-12T07:19:39;9.07;;;8.38;;
68315;SDS011;55508;54.368;18.406;2023-04-12T07:22:07;12.25;;;8.70;;
68315;SDS011;55508;54.368;18.406;2023-04-12T07:24:34;9.82;;;8.77;;
68315;SDS011;55508;54.368;18.406;2023-04-12T07:27:01;9.05;;;8.32;;
68315;SDS011;55508;54.368;18.406;2023-04-12T07:29:29;8.65;;;7.93;;
68315;SDS011;55508;54.368;18.406;2023-04-12T07:31:57;8.73;;;7.95;;
68315;SDS011;55508;54.368;18.406;2023-04-12T07:34:25;9.00;;;8.20;;
68315;SDS011;55508;54.368;18.406;2023-04-12T07:36:52;9.25;;;8.40;;
68315;SDS011;55508;54.368;18.406;2023-04-12T07:39:19;9.70;;;8.80;;
68315;SDS011;55508;54.368;18.406;2023-04-12T07:41:48;8.90;;;8.07;;
68315;SDS011;55508;54.368;18.406;2023-04-12T07:44:15;9.50;;;8.70;;
68315;SDS011;55508;54.368;18.406;2023-04-12T07:46:42;9.23;;;8.38;;
68315;SDS011;55508;54.368;18.406;2023-04-12T07:49:08;9.98;;;9.18;;
68315;SDS011;55508;54.368;18.406;2023-04-12T07:51:36;9.90;;;9.07;;
68315;SDS011;55508;54.368;18.406;2023-04-12T07:54:03;7.75;;;7.07;;
68315;SDS011;55508;54.368;18.406;2023-04-12T07:56:33;8.40;;;7.28;;
68315;SDS011;55508;54.368;18.406;2023-04-12T07:59:01;7.55;;;6.82;;
68315;SDS011;55508;54.368;18.406;2023-04-12T08:01:28;8.80;;;7.80;;
68315;SDS011;55508;54.368;18.406;2023-04-12T08:03:55;8.48;;;7.75;;
68315;SDS011;55508;54.368;18.406;2023-04-12T08:06:23;10.05;;;8.02;;
68315;SDS011;55508;54.368;18.406;2023-04-12T08:08:53;8.90;;;8.10;;
68315;SDS011;55508;54.368;18.406;2023-04-12T08:11:20;10.13;;;7.70;;
68315;SDS011;55508;54.368;18.406;2023-04-12T08:13:47;8.20;;;7.45;;
68315;SDS011;55508;54.368;18.406;2023-04-12T08:16:14;8.30;;;7.60;;
68315;SDS011;55508;54.368;18.406;2023-04-12T08:18:41;9.00;;;8.10;;
68315;SDS011;55508;54.368;18.406;2023-04-12T08:21:08;9.02;;;8.32;;
68315;SDS011;55508;54.368;18.406;2023-04-12T08:23:36;8.10;;;7.50;;
68315;SDS011;55508;54.368;18.406;2023-04-12T08:26:03;8.38;;;7.78;;
68315;SDS011;55508;54.368;18.406;2023-04-12T08:28:30;8.68;;;7.82;;
68315;SDS011;55508;54.368;18.406;2023-04-12T08:30:58;8.77;;;7.90;;
68315;SDS011;55508;54.368;18.406;2023-04-12T08:33:25;8.60;;;8.00;;
68315;SDS011;55508;54.368;18.406;2023-04-12T08:35:53;9.70;;;8.90;;
68315;SDS011;55508;54.368;18.406;2023-04-12T08:38:20;10.00;;;9.20;;
68315;SDS011;55508;54.368;18.406;2023-04-12T08:43:30;11.27;;;10.13;;
68315;SDS011;55508;54.368;18.406;2023-04-12T08:45:59;10.82;;;9.68;;
68315;SDS011;55508;54.368;18.406;2023-04-12T08:48:26;10.60;;;9.50;;
68315;SDS011;55508;54.368;18.406;2023-04-12T08:50:55;11.55;;;10.57;;
68315;SDS011;55508;54.368;18.406;2023-04-12T08:53:23;11.55;;;10.35;;
68315;SDS011;55508;54.368;18.406;2023-04-12T08:55:50;10.15;;;9.35;;
68315;SDS011;55508;54.368;18.406;2023-04-12T08:58:17;11.25;;;9.88;;
68315;SDS011;55508;54.368;18.406;2023-04-12T09:00:46;11.02;;;10.05;;
68315;SDS011;55508;54.368;18.406;2023-04-12T09:03:13;10.85;;;9.95;;
68315;SDS011;55508;54.368;18.406;2023-04-12T09:05:41;9.80;;;8.80;;
68315;SDS011;55508;54.368;18.406;2023-04-12T09:08:08;10.20;;;9.50;;
68315;SDS011;55508;54.368;18.406;2023-04-12T09:10:36;12.35;;;11.25;;
68315;SDS011;55508;54.368;18.406;2023-04-12T09:13:04;11.77;;;10.70;;
68315;SDS011;55508;54.368;18.406;2023-04-12T09:15:34;10.77;;;9.95;;
68315;SDS011;55508;54.368;18.406;2023-04-12T09:18:05;10.30;;;9.40;;
68315;SDS011;55508;54.368;18.406;2023-04-12T09:20:35;10.60;;;9.70;;
68315;SDS011;55508;54.368;18.406;2023-04-12T09:23:20;10.30;;;9.50;;
68315;SDS011;55508;54.368;18.406;2023-04-12T09:25:49;11.70;;;10.70;;
68315;SDS011;55508;54.368;18.406;2023-04-12T09:28:21;11.18;;;10.07;;
68315;SDS011;55508;54.368;18.406;2023-04-12T09:30:53;12.50;;;10.95;;
68315;SDS011;55508;54.368;18.406;2023-04-12T09:33:21;11.02;;;10.15;;
68315;SDS011;55508;54.368;18.406;2023-04-12T09:35:50;10.73;;;9.82;;
68315;SDS011;55508;54.368;18.406;2023-04-12T09:38:26;11.30;;;10.20;;
68315;SDS011;55508;54.368;18.406;2023-04-12T09:40:53;13.38;;;9.73;;
68315;SDS011;55508;54.368;18.406;2023-04-12T09:46:08;10.00;;;9.30;;
68315;SDS011;55508;54.368;18.406;2023-04-12T09:48:39;10.48;;;9.38;;
68315;SDS011;55508;54.368;18.406;2023-04-12T09:51:07;11.40;;;10.40;;
68315;SDS011;55508;54.368;18.406;2023-04-12T09:53:34;11.45;;;10.45;;
68315;SDS011;55508;54.368;18.406;2023-04-12T09:56:02;11.48;;;10.52;;
68315;SDS011;55508;54.368;18.406;2023-04-12T09:58:30;10.52;;;9.52;;
68315;SDS011;55508;54.368;18.406;2023-04-12T10:00:59;11.32;;;10.35;;
68315;SDS011;55508;54.368;18.406;2023-04-12T10:03:27;10.63;;;9.63;;
68315;SDS011;55508;54.368;18.406;2023-04-12T10:05:54;10.82;;;9.93;;
68315;SDS011;55508;54.368;18.406;2023-04-12T10:08:21;13.57;;;12.05;;
68315;SDS011;55508;54.368;18.406;2023-04-12T10:10:50;10.93;;;10.02;;
68315;SDS011;55508;54.368;18.406;2023-04-12T10:13:18;11.20;;;10.30;;
68315;SDS011;55508;54.368;18.406;2023-04-12T10:15:47;12.25;;;11.02;;
68315;SDS011;55508;54.368;18.406;2023-04-12T10:18:16;13.70;;;11.38;;
68315;SDS011;55508;54.368;18.406;2023-04-12T10:20:44;13.43;;;12.13;;
68315;SDS011;55508;54.368;18.406;2023-04-12T10:23:15;12.38;;;11.30;;
68315;SDS011;55508;54.368;18.406;2023-04-12T10:25:44;10.98;;;9.98;;
68315;SDS011;55508;54.368;18.406;2023-04-12T10:28:13;10.88;;;9.88;;
68315;SDS011;55508;54.368;18.406;2023-04-12T10:30:45;11.23;;;10.02;;
68315;SDS011;55508;54.368;18.406;2023-04-12T10:33:18;11.27;;;10.18;;
68315;SDS011;55508;54.368;18.406;2023-04-12T10:35:51;11.60;;;10.70;;
68315;SDS011;55508;54.368;18.406;2023-04-12T10:38:20;11.23;;;10.07;;
68315;SDS011;55508;54.368;18.406;2023-04-12T10:43:42;12.38;;;11.27;;
68315;SDS011;55508;54.368;18.406;2023-04-12T10:49:17;12.00;;;10.80;;
68315;SDS011;55508;54.368;18.406;2023-04-12T10:54:37;11.20;;;10.30;;
68315;SDS011;55508;54.368;18.406;2023-04-12T10:57:06;12.18;;;10.93;;
68315;SDS011;55508;54.368;18.406;2023-04-12T11:02:25;10.35;;;9.40;;
68315;SDS011;55508;54.368;18.406;2023-04-12T11:07:52;10.65;;;9.75;;
68315;SDS011;55508;54.368;18.406;2023-04-12T11:10:39;13.32;;;11.45;;
68315;SDS011;55508;54.368;18.406;2023-04-12T11:13:13;11.13;;;10.13;;
68315;SDS011;55508;54.368;18.406;2023-04-12T11:15:40;14.23;;;12.75;;
68315;SDS011;55508;54.368;18.406;2023-04-12T11:18:10;15.60;;;13.95;;
68315;SDS011;55508;54.368;18.406;2023-04-12T11:20:38;15.38;;;13.93;;
68315;SDS011;55508;54.368;18.406;2023-04-12T11:23:08;18.02;;;14.77;;
68315;SDS011;55508;54.368;18.406;2023-04-12T11:25:37;16.13;;;14.70;;
68315;SDS011;55508;54.368;18.406;2023-04-12T11:28:04;15.75;;;14.13;;
68315;SDS011;55508;54.368;18.406;2023-04-12T11:30:54;15.48;;;13.93;;
68315;SDS011;55508;54.368;18.406;2023-04-12T11:33:31;17.47;;;15.17;;
68315;SDS011;55508;54.368;18.406;2023-04-12T11:36:02;18.55;;;16.65;;
68315;SDS011;55508;54.368;18.406;2023-04-12T11:38:33;19.40;;;16.65;;
68315;SDS011;55508;54.368;18.406;2023-04-12T11:41:01;17.13;;;15.45;;
68315;SDS011;55508;54.368;18.406;2023-04-12T11:43:28;18.58;;;16.65;;
68315;SDS011;55508;54.368;18.406;2023-04-12T11:45:58;19.10;;;16.08;;
68315;SDS011;55508;54.368;18.406;2023-04-12T11:48:26;17.80;;;15.55;;
68315;SDS011;55508;54.368;18.406;2023-04-12T11:50:54;18.83;;;15.98;;
68315;SDS011;55508;54.368;18.406;2023-04-12T11:53:36;17.88;;;15.98;;
68315;SDS011;55508;54.368;18.406;2023-04-12T11:56:04;24.05;;;17.23;;
68315;SDS011;55508;54.368;18.406;2023-04-12T11:58:32;19.80;;;17.70;;
68315;SDS011;55508;54.368;18.406;2023-04-12T12:00:59;19.60;;;17.55;;
68315;SDS011;55508;54.368;18.406;2023-04-12T12:03:26;20.65;;;18.50;;
68315;SDS011;55508;54.368;18.406;2023-04-12T12:05:54;20.38;;;18.23;;
68315;SDS011;55508;54.368;18.406;2023-04-12T12:08:21;20.27;;;18.17;;
68315;SDS011;55508;54.368;18.406;2023-04-12T12:10:50;19.67;;;17.88;;
68315;SDS011;55508;54.368;18.406;2023-04-12T12:13:51;18.98;;;17.08;;
68315;SDS011;55508;54.368;18.406;2023-04-12T12:16:26;18.52;;;16.67;;
68315;SDS011;55508;54.368;18.406;2023-04-12T12:18:55;19.05;;;17.08;;
68315;SDS011;55508;54.368;18.406;2023-04-12T12:21:22;19.88;;;17.85;;
68315;SDS011;55508;54.368;18.406;2023-04-12T12:23:49;19.27;;;17.15;;
68315;SDS011;55508;54.368;18.406;2023-04-12T12:26:20;20.15;;;18.00;;
68315;SDS011;55508;54.368;18.406;2023-04-12T12:28:50;19.20;;;17.33;;
68315;SDS011;55508;54.368;18.406;2023-04-12T12:31:19;20.33;;;18.23;;
68315;SDS011;55508;54.368;18.406;2023-04-12T12:33:53;20.98;;;18.58;;
68315;SDS011;55508;54.368;18.406;2023-04-12T12:36:29;21.13;;;18.85;;
68315;SDS011;55508;54.368;18.406;2023-04-12T12:39:02;20.08;;;17.95;;
68315;SDS011;55508;54.368;18.406;2023-04-12T12:41:32;20.00;;;17.88;;
68315;SDS011;55508;54.368;18.406;2023-04-12T12:44:00;20.60;;;18.45;;
68315;SDS011;55508;54.368;18.406;2023-04-12T12:46:27;20.88;;;18.67;;
68315;SDS011;55508;54.368;18.406;2023-04-12T12:49:14;21.02;;;18.88;;
68315;SDS011;55508;54.368;18.406;2023-04-12T12:51:41;21.35;;;19.15;;
68315;SDS011;55508;54.368;18.406;2023-04-12T12:54:08;20.50;;;18.42;;
68315;SDS011;55508;54.368;18.406;2023-04-12T12:56:35;23.23;;;19.48;;
68315;SDS011;55508;54.368;18.406;2023-04-12T12:59:02;21.55;;;19.40;;
68315;SDS011;55508;54.368;18.406;2023-04-12T13:01:29;20.85;;;18.77;;
68315;SDS011;55508;54.368;18.406;2023-04-12T13:03:56;20.90;;;18.67;;
68315;SDS011;55508;54.368;18.406;2023-04-12T13:06:24;21.85;;;19.38;;
68315;SDS011;55508;54.368;18.406;2023-04-12T13:08:52;21.05;;;18.95;;
68315;SDS011;55508;54.368;18.406;2023-04-12T13:11:20;20.70;;;18.60;;
68315;SDS011;55508;54.368;18.406;2023-04-12T13:13:47;21.58;;;19.25;;
68315;SDS011;55508;54.368;18.406;2023-04-12T13:16:14;21.52;;;19.40;;
68315;SDS011;55508;54.368;18.406;2023-04-12T13:18:42;21.75;;;19.55;;
68315;SDS011;55508;54.368;18.406;2023-04-12T13:21:08;22.58;;;20.27;;
68315;SDS011;55508;54.368;18.406;2023-04-12T13:23:35;26.00;;;23.23;;
68315;SDS011;55508;54.368;18.406;2023-04-12T13:26:02;30.60;;;26.05;;
68315;SDS011;55508;54.368;18.406;2023-04-12T13:28:29;24.95;;;22.35;;
68315;SDS011;55508;54.368;18.406;2023-04-12T13:30:56;26.27;;;21.13;;
68315;SDS011;55508;54.368;18.406;2023-04-12T13:33:23;27.60;;;24.50;;
68315;SDS011;55508;54.368;18.406;2023-04-12T13:35:50;24.63;;;21.90;;
68315;SDS011;55508;54.368;18.406;2023-04-12T13:38:17;20.88;;;18.67;;
68315;SDS011;55508;54.368;18.406;2023-04-12T13:40:44;21.13;;;18.83;;
68315;SDS011;55508;54.368;18.406;2023-04-12T13:43:11;19.92;;;17.92;;
68315;SDS011;55508;54.368;18.406;2023-04-12T13:45:38;19.38;;;17.38;;
68315;SDS011;55508;54.368;18.406;2023-04-12T13:48:05;18.65;;;16.95;;
68315;SDS011;55508;54.368;18.406;2023-04-12T13:50:32;18.80;;;16.90;;
68315;SDS011;55508;54.368;18.406;2023-04-12T13:52:59;21.23;;;18.60;;
68315;SDS011;55508;54.368;18.406;2023-04-12T13:55:27;19.02;;;17.10;;
68315;SDS011;55508;54.368;18.406;2023-04-12T13:57:54;16.98;;;15.18;;
68315;SDS011;55508;54.368;18.406;2023-04-12T14:00:21;17.95;;;16.15;;
68315;SDS011;55508;54.368;18.406;2023-04-12T14:02:48;17.10;;;15.43;;
68315;SDS011;55508;54.368;18.406;2023-04-12T14:05:16;15.35;;;13.90;;
68315;SDS011;55508;54.368;18.406;2023-04-12T14:07:42;14.13;;;12.88;;
68315;SDS011;55508;54.368;18.406;2023-04-12T14:10:09;13.80;;;12.52;;
68315;SDS011;55508;54.368;18.406;2023-04-12T14:12:36;15.10;;;13.57;;
68315;SDS011;55508;54.368;18.406;2023-04-12T14:15:04;16.25;;;14.63;;
68315;SDS011;55508;54.368;18.406;2023-04-12T14:17:31;14.43;;;13.02;;
68315;SDS011;55508;54.368;18.406;2023-04-12T14:19:58;15.80;;;14.30;;
68315;SDS011;55508;54.368;18.406;2023-04-12T14:22:26;16.90;;;15.27;;
68315;SDS011;55508;54.368;18.406;2023-04-12T14:24:53;15.80;;;14.27;;
68315;SDS011;55508;54.368;18.406;2023-04-12T14:27:20;14.55;;;13.15;;
68315;SDS011;55508;54.368;18.406;2023-04-12T14:29:47;15.30;;;14.00;;
68315;SDS011;55508;54.368;18.406;2023-04-12T14:32:14;13.43;;;12.15;;
68315;SDS011;55508;54.368;18.406;2023-04-12T14:34:42;14.90;;;13.52;;
68315;SDS011;55508;54.368;18.406;2023-04-12T14:37:09;13.63;;;12.43;;
68315;SDS011;55508;54.368;18.406;2023-04-12T14:39:36;14.32;;;12.93;;
68315;SDS011;55508;54.368;18.406;2023-04-12T14:44:31;15.13;;;13.60;;
68315;SDS011;55508;54.368;18.406;2023-04-12T14:46:58;14.82;;;13.45;;
68315;SDS011;55508;54.368;18.406;2023-04-12T14:49:25;14.20;;;12.90;;
68315;SDS011;55508;54.368;18.406;2023-04-12T14:51:52;11.68;;;10.85;;
68315;SDS011;55508;54.368;18.406;2023-04-12T14:54:19;13.90;;;12.60;;
68315;SDS011;55508;54.368;18.406;2023-04-12T14:56:46;12.80;;;11.65;;
68315;SDS011;55508;54.368;18.406;2023-04-12T14:59:21;19.92;;;18.13;;
68315;SDS011;55508;54.368;18.406;2023-04-12T15:01:49;28.52;;;26.05;;
68315;SDS011;55508;54.368;18.406;2023-04-12T15:04:18;23.70;;;11.77;;
68315;SDS011;55508;54.368;18.406;2023-04-12T15:06:45;33.80;;;13.30;;
68315;SDS011;55508;54.368;18.406;2023-04-12T15:09:12;14.20;;;12.43;;